DLH6MD EDDH-EKCH
Flight info
| Callsign | DLH6MD |
|---|---|
| Flight time | 0h 35m |
| Altitude | 23000 |
| Route | LUGEG3G LUGEG P605 GESKA Z711 MONAK |
| Aircraft | A20N/M-SDE2E3FGHIRWXY/LB1 |
Departure
| Time | 2026-05-05 07:49 |
|---|---|
| Airport | Hamburg Helmut Schmidt Airport (EDDH) |
Arrival
| Time | 2026-05-05 08:24 |
|---|---|
| Airport | Copenhagen Kastrup Airport (EKCH) |
| Time | Latitude | Longitude | Altitude | Speed | Heading |
|---|---|---|---|---|---|
| 2026-05-05 07:28 | 53.63075 | 10.00365 | 49 ft | 0 kts | 96° |
| 2026-05-05 07:40 | 53.63075 | 10.00363 | 49 ft | 2 kts | 96° |
| 2026-05-05 07:41 | 53.63077 | 10.00336 | 49 ft | 2 kts | 95° |
| 2026-05-05 07:41 | 53.63078 | 10.00308 | 49 ft | 2 kts | 92° |
| 2026-05-05 07:41 | 53.63078 | 10.00280 | 49 ft | 2 kts | 96° |
| 2026-05-05 07:41 | 53.63087 | 10.00260 | 44 ft | 2 kts | 176° |
| 2026-05-05 07:42 | 53.63103 | 10.00259 | 45 ft | 2 kts | 176° |
| 2026-05-05 07:42 | 53.63105 | 10.00259 | 45 ft | 0 kts | 176° |
| 2026-05-05 07:46 | 53.63096 | 10.00260 | 47 ft | 4 kts | 176° |
| 2026-05-05 07:46 | 53.63053 | 10.00245 | 48 ft | 9 kts | 208° |
| 2026-05-05 07:47 | 53.62995 | 10.00179 | 46 ft | 10 kts | 212° |
| 2026-05-05 07:47 | 53.62923 | 10.00104 | 49 ft | 15 kts | 212° |
| 2026-05-05 07:47 | 53.62847 | 9.99971 | 49 ft | 8 kts | 244° |
| 2026-05-05 07:47 | 53.62845 | 9.99965 | 50 ft | 0 kts | 245° |
| 2026-05-05 07:48 | 53.62844 | 9.99961 | 50 ft | 1 kts | 245° |
| 2026-05-05 07:48 | 53.62835 | 9.99929 | 47 ft | 5 kts | 244° |
| 2026-05-05 07:48 | 53.62813 | 9.99847 | 51 ft | 9 kts | 258° |
| 2026-05-05 07:48 | 53.62854 | 9.99758 | 50 ft | 14 kts | 334° |
| 2026-05-05 07:49 | 53.63113 | 9.99535 | 49 ft | 76 kts | 333° |
| 2026-05-05 07:49 | 53.63785 | 9.98953 | 43 ft | 140 kts | 333° |
| 2026-05-05 07:49 | 53.64752 | 9.98146 | 369 ft | 158 kts | 335° |
| 2026-05-05 07:49 | 53.65732 | 9.97267 | 1025 ft | 163 kts | 333° |
| 2026-05-05 07:50 | 53.66789 | 9.96308 | 1495 ft | 186 kts | 336° |
| 2026-05-05 07:50 | 53.68047 | 9.95288 | 1993 ft | 210 kts | 340° |
| 2026-05-05 07:50 | 53.69481 | 9.94718 | 2876 ft | 215 kts | 356° |
| 2026-05-05 07:50 | 53.70997 | 9.94630 | 3779 ft | 221 kts | 359° |
| 2026-05-05 07:51 | 53.72544 | 9.94914 | 4682 ft | 229 kts | 16° |
| 2026-05-05 07:51 | 53.73901 | 9.96355 | 5485 ft | 238 kts | 46° |
| 2026-05-05 07:51 | 53.75000 | 9.98629 | 5981 ft | 262 kts | 56° |
| 2026-05-05 07:51 | 53.75968 | 10.01348 | 6541 ft | 276 kts | 61° |
| 2026-05-05 07:52 | 53.76869 | 10.04253 | 7310 ft | 281 kts | 63° |
| 2026-05-05 07:52 | 53.77731 | 10.07202 | 8124 ft | 286 kts | 64° |
| 2026-05-05 07:52 | 53.78611 | 10.10294 | 8942 ft | 291 kts | 65° |
| 2026-05-05 07:52 | 53.79475 | 10.13371 | 9633 ft | 295 kts | 65° |
| 2026-05-05 07:53 | 53.80353 | 10.16520 | 9959 ft | 297 kts | 65° |
| 2026-05-05 07:53 | 53.81239 | 10.19714 | 10138 ft | 309 kts | 65° |
| 2026-05-05 07:53 | 53.82186 | 10.23152 | 10362 ft | 335 kts | 65° |
| 2026-05-05 07:53 | 53.83196 | 10.26826 | 10577 ft | 351 kts | 65° |
| 2026-05-05 07:54 | 53.84233 | 10.30593 | 10775 ft | 354 kts | 65° |
| 2026-05-05 07:54 | 53.85272 | 10.34379 | 10971 ft | 355 kts | 65° |
| 2026-05-05 07:54 | 53.86309 | 10.38169 | 11164 ft | 356 kts | 65° |
| 2026-05-05 07:54 | 53.87351 | 10.41980 | 11361 ft | 357 kts | 65° |
| 2026-05-05 07:55 | 53.88392 | 10.45799 | 11563 ft | 358 kts | 65° |
| 2026-05-05 07:55 | 53.89434 | 10.49626 | 11772 ft | 358 kts | 65° |
| 2026-05-05 07:55 | 53.90479 | 10.53473 | 11970 ft | 359 kts | 65° |
| 2026-05-05 07:55 | 53.91521 | 10.57314 | 12159 ft | 359 kts | 65° |
| 2026-05-05 07:56 | 53.92564 | 10.61161 | 12382 ft | 359 kts | 65° |
| 2026-05-05 07:56 | 53.93633 | 10.64995 | 12577 ft | 360 kts | 61° |
| 2026-05-05 07:56 | 53.95013 | 10.68533 | 12788 ft | 360 kts | 52° |
| 2026-05-05 07:56 | 53.96613 | 10.71810 | 12996 ft | 363 kts | 47° |
| 2026-05-05 07:57 | 53.98347 | 10.74984 | 13626 ft | 368 kts | 45° |
| 2026-05-05 07:57 | 54.00130 | 10.78117 | 14442 ft | 369 kts | 45° |
| 2026-05-05 07:57 | 54.01927 | 10.81260 | 15192 ft | 373 kts | 45° |
| 2026-05-05 07:57 | 54.03746 | 10.84469 | 15867 ft | 379 kts | 45° |
| 2026-05-05 07:58 | 54.05577 | 10.87743 | 16582 ft | 383 kts | 45° |
| 2026-05-05 07:58 | 54.07391 | 10.91022 | 17303 ft | 387 kts | 45° |
| 2026-05-05 07:58 | 54.09262 | 10.94433 | 18018 ft | 392 kts | 45° |
| 2026-05-05 07:58 | 54.11128 | 10.97853 | 18642 ft | 396 kts | 46° |
| 2026-05-05 07:59 | 54.12985 | 11.01279 | 19220 ft | 400 kts | 46° |
| 2026-05-05 07:59 | 54.14880 | 11.04789 | 19815 ft | 405 kts | 46° |
| 2026-05-05 07:59 | 54.16794 | 11.08345 | 20390 ft | 409 kts | 46° |
| 2026-05-05 07:59 | 54.18724 | 11.11934 | 20989 ft | 413 kts | 46° |
| 2026-05-05 08:00 | 54.20677 | 11.15572 | 21586 ft | 417 kts | 46° |
| 2026-05-05 08:00 | 54.22638 | 11.19233 | 22163 ft | 421 kts | 47° |
| 2026-05-05 08:00 | 54.24624 | 11.22948 | 22683 ft | 427 kts | 47° |
| 2026-05-05 08:00 | 54.26642 | 11.26727 | 22939 ft | 432 kts | 47° |
| 2026-05-05 08:01 | 54.28668 | 11.30527 | 22967 ft | 432 kts | 47° |
| 2026-05-05 08:01 | 54.30691 | 11.34324 | 22965 ft | 432 kts | 47° |
| 2026-05-05 08:01 | 54.32721 | 11.38145 | 22950 ft | 432 kts | 47° |
| 2026-05-05 08:01 | 54.34743 | 11.41955 | 22958 ft | 432 kts | 47° |
| 2026-05-05 08:02 | 54.36767 | 11.45777 | 22953 ft | 432 kts | 47° |
| 2026-05-05 08:02 | 54.38787 | 11.49590 | 22952 ft | 432 kts | 47° |
| 2026-05-05 08:02 | 54.40812 | 11.53413 | 22960 ft | 432 kts | 47° |
| 2026-05-05 08:02 | 54.42836 | 11.57238 | 22964 ft | 432 kts | 47° |
| 2026-05-05 08:03 | 54.44854 | 11.61057 | 22952 ft | 432 kts | 47° |
| 2026-05-05 08:03 | 54.46873 | 11.64883 | 22956 ft | 434 kts | 47° |
| 2026-05-05 08:03 | 54.48904 | 11.68736 | 22958 ft | 435 kts | 47° |
| 2026-05-05 08:03 | 54.50932 | 11.72586 | 22958 ft | 435 kts | 47° |
| 2026-05-05 08:04 | 54.52943 | 11.76408 | 22958 ft | 435 kts | 47° |
| 2026-05-05 08:04 | 54.55005 | 11.80334 | 22960 ft | 435 kts | 47° |
| 2026-05-05 08:04 | 54.57006 | 11.84150 | 22959 ft | 435 kts | 47° |
| 2026-05-05 08:04 | 54.59036 | 11.88030 | 22962 ft | 435 kts | 47° |
| 2026-05-05 08:05 | 54.61104 | 11.91824 | 22939 ft | 435 kts | 40° |
| 2026-05-05 08:05 | 54.63487 | 11.95008 | 22959 ft | 432 kts | 34° |
| 2026-05-05 08:05 | 54.65954 | 11.97985 | 22959 ft | 432 kts | 32° |
| 2026-05-05 08:05 | 54.68456 | 12.00838 | 22970 ft | 431 kts | 28° |
| 2026-05-05 08:06 | 54.71059 | 12.03447 | 22961 ft | 433 kts | 27° |
| 2026-05-05 08:06 | 54.73679 | 12.06017 | 22960 ft | 434 kts | 27° |
| 2026-05-05 08:06 | 54.76314 | 12.08577 | 22962 ft | 434 kts | 27° |
| 2026-05-05 08:06 | 54.78946 | 12.11123 | 22963 ft | 434 kts | 26° |
| 2026-05-05 08:07 | 54.81586 | 12.13674 | 22968 ft | 434 kts | 26° |
| 2026-05-05 08:07 | 54.84220 | 12.16218 | 22964 ft | 434 kts | 26° |
| 2026-05-05 08:07 | 54.86847 | 12.18759 | 22855 ft | 428 kts | 26° |
| 2026-05-05 08:07 | 54.89425 | 12.21256 | 22484 ft | 421 kts | 26° |
| 2026-05-05 08:08 | 54.91963 | 12.23716 | 22037 ft | 417 kts | 26° |
| 2026-05-05 08:08 | 54.94502 | 12.26178 | 21360 ft | 418 kts | 26° |
| 2026-05-05 08:08 | 54.97042 | 12.28643 | 20735 ft | 419 kts | 26° |
| 2026-05-05 08:08 | 54.99586 | 12.31117 | 20144 ft | 418 kts | 26° |
| 2026-05-05 08:09 | 55.02128 | 12.33594 | 19519 ft | 418 kts | 26° |
| 2026-05-05 08:09 | 55.04356 | 12.35769 | 19152 ft | 413 kts | 26° |
| 2026-05-05 08:09 | 55.06831 | 12.38191 | 18929 ft | 402 kts | 26° |
| 2026-05-05 08:09 | 55.09249 | 12.40559 | 18598 ft | 395 kts | 26° |
| 2026-05-05 08:10 | 55.11629 | 12.42892 | 18172 ft | 391 kts | 26° |
| 2026-05-05 08:10 | 55.13961 | 12.45178 | 17683 ft | 388 kts | 26° |
| 2026-05-05 08:10 | 55.16304 | 12.47478 | 17191 ft | 385 kts | 25° |
| 2026-05-05 08:10 | 55.18665 | 12.49800 | 16669 ft | 382 kts | 25° |
| 2026-05-05 08:11 | 55.20941 | 12.52041 | 16196 ft | 379 kts | 25° |
| 2026-05-05 08:11 | 55.23230 | 12.54299 | 15736 ft | 376 kts | 25° |
| 2026-05-05 08:11 | 55.25501 | 12.56543 | 15272 ft | 373 kts | 25° |
| 2026-05-05 08:11 | 55.27755 | 12.58772 | 14805 ft | 370 kts | 25° |
| 2026-05-05 08:12 | 55.29986 | 12.60981 | 14349 ft | 367 kts | 26° |
| 2026-05-05 08:12 | 55.32203 | 12.63179 | 13896 ft | 365 kts | 26° |
| 2026-05-05 08:12 | 55.34404 | 12.65364 | 13405 ft | 361 kts | 26° |
| 2026-05-05 08:12 | 55.36573 | 12.67521 | 12747 ft | 356 kts | 26° |
| 2026-05-05 08:13 | 55.38725 | 12.69663 | 11996 ft | 354 kts | 26° |
| 2026-05-05 08:13 | 55.40845 | 12.71777 | 11465 ft | 345 kts | 26° |
| 2026-05-05 08:13 | 55.42885 | 12.73818 | 11204 ft | 329 kts | 26° |
| 2026-05-05 08:13 | 55.44836 | 12.75771 | 10878 ft | 318 kts | 25° |
| 2026-05-05 08:14 | 55.46746 | 12.77680 | 10410 ft | 313 kts | 25° |
| 2026-05-05 08:14 | 55.48632 | 12.79566 | 9898 ft | 310 kts | 25° |
| 2026-05-05 08:14 | 55.50498 | 12.81434 | 9323 ft | 307 kts | 26° |
| 2026-05-05 08:14 | 55.52338 | 12.83279 | 8775 ft | 302 kts | 26° |
| 2026-05-05 08:15 | 55.54151 | 12.85099 | 8254 ft | 298 kts | 26° |
| 2026-05-05 08:15 | 55.55941 | 12.86899 | 7722 ft | 294 kts | 26° |
| 2026-05-05 08:15 | 55.57678 | 12.88647 | 7230 ft | 289 kts | 26° |
| 2026-05-05 08:15 | 55.59417 | 12.90399 | 6724 ft | 285 kts | 27° |
| 2026-05-05 08:16 | 55.61128 | 12.92125 | 6215 ft | 282 kts | 27° |
| 2026-05-05 08:16 | 55.62820 | 12.93833 | 5693 ft | 278 kts | 27° |
| 2026-05-05 08:16 | 55.64493 | 12.95524 | 5130 ft | 276 kts | 27° |
| 2026-05-05 08:16 | 55.66144 | 12.97193 | 4653 ft | 270 kts | 27° |
| 2026-05-05 08:17 | 55.67765 | 12.98836 | 4299 ft | 267 kts | 27° |
| 2026-05-05 08:17 | 55.69367 | 13.00458 | 3928 ft | 265 kts | 27° |
| 2026-05-05 08:17 | 55.70968 | 13.02065 | 3559 ft | 263 kts | 25° |
| 2026-05-05 08:17 | 55.72695 | 13.02864 | 3223 ft | 254 kts | 357° |
| 2026-05-05 08:18 | 55.74338 | 13.02075 | 3010 ft | 240 kts | 327° |
| 2026-05-05 08:18 | 55.75609 | 13.00307 | 2985 ft | 225 kts | 317° |
| 2026-05-05 08:18 | 55.76695 | 12.98443 | 2985 ft | 211 kts | 315° |
| 2026-05-05 08:18 | 55.77543 | 12.96456 | 2990 ft | 195 kts | 290° |
| 2026-05-05 08:19 | 55.77621 | 12.94189 | 3006 ft | 182 kts | 262° |
| 2026-05-05 08:19 | 55.77320 | 12.92004 | 2999 ft | 183 kts | 256° |
| 2026-05-05 08:19 | 55.76909 | 12.89857 | 2994 ft | 185 kts | 246° |
| 2026-05-05 08:19 | 55.76167 | 12.87990 | 2994 ft | 187 kts | 229° |
| 2026-05-05 08:20 | 55.75208 | 12.86417 | 2994 ft | 188 kts | 224° |
| 2026-05-05 08:20 | 55.74218 | 12.84896 | 2997 ft | 188 kts | 224° |
| 2026-05-05 08:20 | 55.73229 | 12.83363 | 2914 ft | 188 kts | 224° |
| 2026-05-05 08:20 | 55.72247 | 12.81831 | 2666 ft | 188 kts | 224° |
| 2026-05-05 08:21 | 55.71270 | 12.80308 | 2403 ft | 186 kts | 224° |
| 2026-05-05 08:21 | 55.70311 | 12.78818 | 2110 ft | 180 kts | 224° |
| 2026-05-05 08:21 | 55.69399 | 12.77402 | 1871 ft | 169 kts | 224° |
| 2026-05-05 08:21 | 55.68549 | 12.76083 | 1673 ft | 155 kts | 224° |
| 2026-05-05 08:22 | 55.67766 | 12.74867 | 1435 ft | 146 kts | 225° |
| 2026-05-05 08:22 | 55.67009 | 12.73689 | 1240 ft | 144 kts | 225° |
| 2026-05-05 08:22 | 55.66257 | 12.72520 | 1043 ft | 144 kts | 224° |
| 2026-05-05 08:22 | 55.65761 | 12.71750 | 902 ft | 142 kts | 224° |
| 2026-05-05 08:23 | 55.65022 | 12.70603 | 701 ft | 142 kts | 223° |
| 2026-05-05 08:23 | 55.64274 | 12.69445 | 509 ft | 143 kts | 223° |
| 2026-05-05 08:23 | 55.63531 | 12.68284 | 311 ft | 142 kts | 223° |
| 2026-05-05 08:23 | 55.62552 | 12.66777 | 67 ft | 140 kts | 224° |
| 2026-05-05 08:24 | 55.61852 | 12.65685 | 27 ft | 123 kts | 221° |
| 2026-05-05 08:24 | 55.61294 | 12.64833 | 27 ft | 82 kts | 220° |
| 2026-05-05 08:24 | 55.60950 | 12.64290 | 27 ft | 61 kts | 220° |
| 2026-05-05 08:24 | 55.60745 | 12.63973 | 29 ft | 45 kts | 222° |
| 2026-05-05 08:25 | 55.60694 | 12.63804 | 28 ft | 12 kts | 281° |
| 2026-05-05 08:25 | 55.60728 | 12.63709 | 27 ft | 0 kts | 303° |
| 2026-05-05 08:25 | 55.60730 | 12.63703 | 27 ft | 1 kts | 303° |
| 2026-05-05 08:25 | 55.60745 | 12.63668 | 27 ft | 8 kts | 309° |
| 2026-05-05 08:26 | 55.60814 | 12.63596 | 25 ft | 14 kts | 360° |
| 2026-05-05 08:26 | 55.60905 | 12.63679 | 24 ft | 15 kts | 36° |
| 2026-05-05 08:26 | 55.60990 | 12.63779 | 25 ft | 15 kts | 33° |
| 2026-05-05 08:26 | 55.61086 | 12.63889 | 21 ft | 17 kts | 33° |
| 2026-05-05 08:27 | 55.61191 | 12.64008 | 19 ft | 20 kts | 33° |
| 2026-05-05 08:27 | 55.61317 | 12.64152 | 21 ft | 22 kts | 32° |
| 2026-05-05 08:27 | 55.61444 | 12.64304 | 22 ft | 22 kts | 33° |
| 2026-05-05 08:27 | 55.61570 | 12.64446 | 21 ft | 22 kts | 33° |
| 2026-05-05 08:28 | 55.61698 | 12.64571 | 22 ft | 21 kts | 1° |
| 2026-05-05 08:28 | 55.61838 | 12.64528 | 25 ft | 20 kts | 348° |
| 2026-05-05 08:28 | 55.61976 | 12.64479 | 27 ft | 21 kts | 349° |
| 2026-05-05 08:28 | 55.62119 | 12.64433 | 21 ft | 22 kts | 348° |
| 2026-05-05 08:29 | 55.62275 | 12.64396 | 22 ft | 20 kts | 8° |
| 2026-05-05 08:29 | 55.62405 | 12.64445 | 22 ft | 19 kts | 345° |
| 2026-05-05 08:29 | 55.62490 | 12.64291 | 23 ft | 15 kts | 303° |
| 2026-05-05 08:30 | 55.62615 | 12.64183 | 26 ft | 8 kts | 351° |
| 2026-05-05 08:30 | 55.62663 | 12.64223 | 29 ft | 8 kts | 33° |
| 2026-05-05 08:30 | 55.62676 | 12.64237 | 28 ft | 0 kts | 32° |